Time;durP1;ratioP1;P1;durP2;ratioP2;P2;SDS_P1;SDS_P2;PMS_P1;PMS_P2;Temp;Humidity;BMP_temperature;BMP_pressure;BME280_temperature;BME280_humidity;BME280_pressure;Samples;Min_cycle;Max_cycle;Signal;HPM_P1;HPM_P2
2023/04/10 00:01:01;;;;;;;53.55;26.60;;;;;;;5.82;nan;101052.28;5038355;28;20127;-72
2023/04/10 00:03:27;;;;;;;48.47;25.10;;;;;;;5.80;nan;101046.44;5064617;28;20095;-71
2023/04/10 00:05:53;;;;;;;50.03;25.15;;;;;;;5.83;nan;101048.69;5046556;28;20051;-71
2023/04/10 00:08:23;;;;;;;50.28;24.42;;;;;;;5.73;nan;101041.91;5063938;28;20035;-72
2023/04/10 00:10:48;;;;;;;43.97;24.23;;;;;;;5.71;nan;101037.84;5045698;28;20532;-70
2023/04/10 00:13:15;;;;;;;43.58;22.38;;;;;;;5.62;nan;101023.25;5059379;28;20037;-71
2023/04/10 00:15:40;;;;;;;48.20;24.45;;;;;;;5.73;nan;101043.72;5063689;28;20041;-71
2023/04/10 00:18:06;;;;;;;42.55;22.55;;;;;;;5.70;nan;101036.25;5062704;28;20086;-70
2023/04/10 00:20:31;;;;;;;45.90;22.27;;;;;;;5.57;nan;101013.31;5050245;28;20036;-70
2023/04/10 00:22:57;;;;;;;45.05;22.35;;;;;;;5.60;nan;101020.00;5061259;28;20894;-70
2023/04/10 00:25:22;;;;;;;46.67;23.58;;;;;;;5.64;nan;101029.91;5058840;28;20510;-69
2023/04/10 00:27:48;;;;;;;44.88;22.60;;;;;;;5.58;nan;101022.78;5061902;28;20119;-70
2023/04/10 00:30:13;;;;;;;42.80;22.58;;;;;;;5.51;nan;101016.66;5063606;28;20432;-70
2023/04/10 00:32:39;;;;;;;46.58;23.73;;;;;;;5.44;nan;101015.72;5045255;28;20382;-70
2023/04/10 00:35:05;;;;;;;43.55;22.15;;;;;;;5.47;nan;101017.97;5045261;28;20421;-69
2023/04/10 00:37:31;;;;;;;47.90;23.55;;;;;;;5.41;nan;101013.44;5066376;28;20083;-70
2023/04/10 00:39:56;;;;;;;45.47;22.92;;;;;;;5.42;nan;101015.91;5053445;28;20036;-69
2023/04/10 00:42:22;;;;;;;41.50;21.48;;;;;;;5.46;nan;101018.94;5066076;28;20411;-69
2023/04/10 00:44:47;;;;;;;42.83;22.25;;;;;;;5.37;nan;100996.53;5065956;28;20029;-69
2023/04/10 00:47:13;;;;;;;44.20;22.20;;;;;;;5.45;nan;101010.31;5062973;28;20029;-69
2023/04/10 00:49:40;;;;;;;43.97;23.00;;;;;;;5.45;nan;101012.13;5060320;28;20024;-70
2023/04/10 00:52:06;;;;;;;45.88;22.75;;;;;;;5.36;nan;101002.72;5042453;28;20020;-69
2023/04/10 00:54:33;;;;;;;43.45;22.73;;;;;;;5.31;nan;101004.03;5056640;28;20044;-70
2023/04/10 00:56:58;;;;;;;41.17;22.05;;;;;;;5.31;nan;101008.47;5054397;28;20098;-68
2023/04/10 00:59:24;;;;;;;47.38;23.02;;;;;;;5.27;nan;101004.59;5060003;28;20024;-68
2023/04/10 01:01:49;;;;;;;42.55;22.33;;;;;;;5.17;nan;100986.56;5069183;28;20032;-69
2023/04/10 01:04:16;;;;;;;42.60;21.98;;;;;;;5.26;nan;101002.97;5073480;28;20020;-69
2023/04/10 01:07:07;;;;;;;41.17;21.23;;;;;;;5.24;nan;101005.75;5068401;28;20463;-69
2023/04/10 01:10:14;;;;;;;45.92;22.08;;;;;;;5.16;nan;101011.03;5066119;28;20077;-69
2023/04/10 01:12:44;;;;;;;42.67;21.73;;;;;;;5.09;nan;101007.47;5014717;28;20502;-69
2023/04/10 01:15:19;;;;;;;;;;;;;;;5.14;nan;101006.97;5041452;28;20648;-68
2023/04/10 01:17:50;;;;;;;40.38;20.67;;;;;;;5.05;nan;101003.59;5058244;28;20480;-69
2023/04/10 01:20:24;;;;;;;43.70;22.38;;;;;;;5.07;nan;100999.81;5061823;28;20028;-69
2023/04/10 01:23:08;;;;;;;41.05;21.40;;;;;;;5.08;nan;100993.63;5059454;28;20033;-69
2023/04/10 01:25:57;;;;;;;41.95;21.60;;;;;;;5.13;nan;101000.13;5047385;28;20765;-69
2023/04/10 01:28:23;;;;;;;;;;;;;;;5.10;nan;100998.69;5069002;28;20029;-69
2023/04/10 01:30:52;;;;;;;41.90;21.23;;;;;;;4.97;nan;100982.78;5070631;28;19923;-69
2023/04/10 01:33:21;;;;;;;43.53;21.15;;;;;;;5.08;nan;100995.44;5066771;28;20180;-69
2023/04/10 01:35:49;;;;;;;43.95;22.02;;;;;;;4.94;nan;100983.13;5068833;28;20035;-69
2023/04/10 01:38:17;;;;;;;41.42;21.30;;;;;;;5.00;nan;100992.88;5060750;28;20044;-68
2023/04/10 01:40:48;;;;;;;44.35;22.77;;;;;;;4.94;nan;100983.94;5043291;28;20036;-69
2023/04/10 01:43:16;;;;;;;44.00;22.02;;;;;;;4.93;nan;100989.31;5058872;28;20032;-68
2023/04/10 01:45:43;;;;;;;43.50;22.23;;;;;;;4.83;nan;100966.88;5059478;28;20729;-69
2023/04/10 01:48:09;;;;;;;43.38;22.15;;;;;;;4.87;nan;100985.63;5054831;28;20024;-68
2023/04/10 01:50:35;;;;;;;43.60;21.67;;;;;;;4.75;nan;100968.72;5060722;28;20535;-68
2023/04/10 01:53:03;;;;;;;44.97;22.17;;;;;;;4.82;nan;100985.31;5061331;28;20028;-70
2023/04/10 01:55:31;;;;;;;42.30;22.20;;;;;;;4.75;nan;100973.94;5061683;28;20414;-71
2023/04/10 01:57:57;;;;;;;42.47;21.95;;;;;;;4.78;nan;100989.25;5064185;28;20127;-70
2023/04/10 02:00:22;;;;;;;45.70;21.80;;;;;;;4.64;nan;100973.34;5063920;28;20080;-70
2023/04/10 02:02:48;;;;;;;43.25;21.83;;;;;;;4.64;nan;100978.56;5061486;28;20445;-69
2023/04/10 02:05:15;;;;;;;43.03;21.10;;;;;;;4.62;nan;100972.72;5063731;28;20055;-69
2023/04/10 02:08:14;;;;;;;43.05;22.73;;;;;;;4.67;nan;100977.44;5063559;28;20043;-70
2023/04/10 02:11:17;;;;;;;41.25;21.27;;;;;;;4.63;nan;100979.53;5042639;28;20032;-69
2023/04/10 02:13:43;;;;;;;40.90;20.92;;;;;;;4.61;nan;100981.50;5002988;28;20036;-69
2023/04/10 02:16:12;;;;;;;44.55;21.60;;;;;;;4.60;nan;100971.28;5062979;28;20478;-69
2023/04/10 02:18:41;;;;;;;44.00;22.15;;;;;;;4.60;nan;100977.28;5064833;28;20032;-70
2023/04/10 02:21:07;;;;;;;44.40;22.00;;;;;;;4.63;nan;100976.94;5063237;28;20174;-69
2023/04/10 02:23:32;;;;;;;44.45;22.67;;;;;;;4.66;nan;100984.41;5069678;28;20130;-69
2023/04/10 02:26:05;;;;;;;43.00;21.92;;;;;;;4.59;nan;100967.00;5065786;28;20115;-68
2023/04/10 02:28:30;;;;;;;44.97;22.60;;;;;;;4.61;nan;100978.09;5058947;28;20073;-70
2023/04/10 02:30:55;;;;;;;42.58;22.35;;;;;;;4.58;nan;100978.44;5057261;28;20060;-69
2023/04/10 02:33:21;;;;;;;42.60;22.35;;;;;;;4.50;nan;100986.28;5059464;28;20557;-69
2023/04/10 02:35:46;;;;;;;42.83;20.73;;;;;;;4.36;nan;100975.63;5064091;28;20114;-69
2023/04/10 02:38:11;;;;;;;37.83;20.25;;;;;;;4.30;nan;100965.03;5045736;28;20036;-69
2023/04/10 02:40:37;;;;;;;41.80;21.50;;;;;;;4.42;nan;100974.91;5057339;28;20024;-70
2023/04/10 02:43:02;;;;;;;41.92;21.10;;;;;;;4.37;nan;100966.78;5058241;28;20035;-71
2023/04/10 02:45:27;;;;;;;37.92;21.05;;;;;;;4.38;nan;100965.00;5062629;28;20058;-69
2023/04/10 02:47:53;;;;;;;41.58;20.55;;;;;;;4.46;nan;100970.19;5064091;28;20040;-68
2023/04/10 02:50:18;;;;;;;40.15;20.63;;;;;;;4.33;nan;100956.88;5055120;28;20037;-68
2023/04/10 02:52:44;;;;;;;42.70;20.83;;;;;;;4.36;nan;100964.38;5064315;28;20024;-68
2023/04/10 02:55:10;;;;;;;1163.63;212.85;;;;;;;4.42;nan;100967.09;5060039;28;20502;-68
2023/04/10 02:57:35;;;;;;;74.03;36.95;;;;;;;4.78;nan;100963.97;5067941;28;20028;-68
2023/04/10 03:00:03;;;;;;;57.33;27.17;;;;;;;4.75;nan;100959.09;5057352;28;20095;-69
2023/04/10 03:02:28;;;;;;;46.05;23.27;;;;;;;;;;5059506;28;20032;-69
2023/04/10 03:04:54;;;;;;;44.67;21.93;;;;;;;;;;5056676;28;20029;-69
2023/04/10 03:07:19;;;;;;;46.53;22.45;;;;;;;;;;5028152;28;20170;-69
2023/04/10 03:09:44;;;;;;;45.88;22.08;;;;;;;;;;5057909;28;20025;-69
2023/04/10 03:12:10;;;;;;;45.97;22.80;;;;;;;;;;5059905;28;20692;-69
2023/04/10 03:14:35;;;;;;;49.43;22.97;;;;;;;;;;5048561;28;20357;-69
2023/04/10 03:17:00;;;;;;;49.33;22.75;;;;;;;;;;5052754;28;20033;-70
2023/04/10 03:19:25;;;;;;;48.97;21.80;;;;;;;;;;5054494;28;20060;-69
2023/04/10 03:21:51;;;;;;;46.70;23.27;;;;;;;;;;5042225;28;20277;-70
2023/04/10 03:24:16;;;;;;;47.38;22.67;;;;;;;;;;5054899;28;20032;-72
2023/04/10 03:26:41;;;;;;;47.60;22.43;;;;;;;;;;5056855;28;20052;-69
2023/04/10 03:29:07;;;;;;;48.15;22.83;;;;;;;;;;5059351;28;20646;-71
2023/04/10 03:31:32;;;;;;;51.00;23.03;;;;;;;;;;5060232;28;20035;-72
2023/04/10 03:33:57;;;;;;;48.70;23.83;;;;;;;;;;5053371;28;20281;-70
2023/04/10 03:36:22;;;;;;;50.08;24.58;;;;;;;;;;5058188;28;20086;-70
2023/04/10 03:38:48;;;;;;;56.93;26.03;;;;;;;;;;5044463;28;20657;-71
2023/04/10 03:41:13;;;;;;;55.20;26.52;;;;;;;;;;5063143;28;20051;-70
2023/04/10 03:43:38;;;;;;;62.53;27.97;;;;;;;;;;5061591;28;20029;-70
2023/04/10 03:46:03;;;;;;;59.67;27.85;;;;;;;;;;5055932;28;20335;-71
2023/04/10 03:48:29;;;;;;;63.28;29.92;;;;;;;;;;5057006;28;20036;-70
2023/04/10 03:50:54;;;;;;;122.82;51.45;;;;;;;;;;5048046;28;20024;-71
2023/04/10 03:53:20;;;;;;;116.88;49.28;;;;;;;;;;5058364;28;20025;-71
2023/04/10 03:55:45;;;;;;;104.47;43.93;;;;;;;;;;5038781;28;20041;-71
2023/04/10 03:58:11;;;;;;;117.90;48.17;;;;;;;;;;5041651;28;20033;-71
2023/04/10 04:00:36;;;;;;;112.50;48.25;;;;;;;;;;5029338;28;20830;-71
2023/04/10 04:03:03;;;;;;;102.82;43.30;;;;;;;;;;5043494;28;20065;-71
2023/04/10 04:05:29;;;;;;;90.07;41.05;;;;;;;;;;5044878;28;20525;-71
2023/04/10 04:07:54;;;;;;;76.55;35.08;;;;;;;;;;5052502;28;20074;-71
2023/04/10 04:10:20;;;;;;;66.43;30.57;;;;;;;;;;5049973;28;20075;-70
2023/04/10 04:12:45;;;;;;;66.47;30.80;;;;;;;;;;5031663;28;20771;-70
2023/04/10 04:15:10;;;;;;;75.03;32.93;;;;;;;;;;5047379;28;20369;-70
2023/04/10 04:17:35;;;;;;;70.70;33.07;;;;;;;;;;5035889;28;20289;-70
2023/04/10 04:20:01;;;;;;;69.60;30.40;;;;;;;;;;5029420;28;20033;-70
2023/04/10 04:22:26;;;;;;;66.57;31.95;;;;;;;;;;5028584;28;20029;-70
2023/04/10 04:24:51;;;;;;;64.13;30.67;;;;;;;;;;5022892;28;20052;-70
2023/04/10 04:27:18;;;;;;;74.43;33.20;;;;;;;;;;5042311;28;20107;-70
2023/04/10 04:29:44;;;;;;;75.18;33.47;;;;;;;;;;5039252;28;20059;-70
2023/04/10 04:32:09;;;;;;;88.30;35.83;;;;;;;;;;5044384;28;20053;-70
2023/04/10 04:34:34;;;;;;;76.85;33.70;;;;;;;;;;5027518;28;20365;-69
2023/04/10 04:37:00;;;;;;;68.73;32.63;;;;;;;;;;5028182;28;20035;-70
2023/04/10 04:39:26;;;;;;;70.80;31.30;;;;;;;;;;5051101;28;20364;-72
2023/04/10 04:41:51;;;;;;;61.07;31.47;;;;;;;;;;5045098;28;20053;-69
2023/04/10 04:44:17;;;;;;;69.87;32.20;;;;;;;;;;5045392;28;20032;-69
2023/04/10 04:46:43;;;;;;;68.28;30.83;;;;;;;;;;5043244;28;20478;-71
2023/04/10 04:49:08;;;;;;;65.73;30.20;;;;;;;;;;5039879;28;20035;-70
2023/04/10 04:51:34;;;;;;;63.77;29.47;;;;;;;;;;5045395;28;20737;-74
2023/04/10 04:53:59;;;;;;;68.53;33.53;;;;;;;;;;5048530;28;20515;-74
2023/04/10 04:56:25;;;;;;;69.00;31.73;;;;;;;;;;5047377;28;20102;-73
2023/04/10 04:58:50;;;;;;;73.40;33.15;;;;;;;;;;5068315;28;20702;-72
2023/04/10 05:01:15;;;;;;;72.23;33.17;;;;;;;;;;5065295;28;20742;-73
2023/04/10 05:03:40;;;;;;;71.03;32.43;;;;;;;;;;5057456;28;20300;-74
2023/04/10 05:06:06;;;;;;;73.03;33.43;;;;;;;;;;5064003;28;20033;-74
2023/04/10 05:08:31;;;;;;;74.10;33.58;;;;;;;;;;5069251;28;20270;-74
2023/04/10 05:10:57;;;;;;;78.68;34.10;;;;;;;;;;5050246;28;20065;-73
2023/04/10 05:13:22;;;;;;;71.80;33.55;;;;;;;;;;5046028;28;20107;-73
2023/04/10 05:15:47;;;;;;;68.73;32.30;;;;;;;;;;5064166;28;20029;-74
2023/04/10 05:18:13;;;;;;;67.10;32.67;;;;;;;;;;5056277;28;20024;-74
2023/04/10 05:20:38;;;;;;;72.93;33.88;;;;;;;;;;5059917;28;20044;-73
2023/04/10 05:23:04;;;;;;;66.35;31.88;;;;;;;;;;5039857;28;20056;-74
2023/04/10 05:25:29;;;;;;;64.82;31.40;;;;;;;;;;5062618;28;20021;-73
2023/04/10 05:27:55;;;;;;;72.68;32.28;;;;;;;;;;5062387;28;20028;-74
2023/04/10 05:30:20;;;;;;;66.53;31.30;;;;;;;;;;5045173;28;20044;-72
2023/04/10 05:32:45;;;;;;;71.95;31.55;;;;;;;4.65;nan;101036.78;5065260;28;20025;-74
2023/04/10 05:35:11;;;;;;;65.20;31.15;;;;;;;;;;5066130;28;20028;-74
2023/04/10 05:37:36;;;;;;;68.63;30.90;;;;;;;;;;5068182;28;20039;-74
2023/04/10 05:40:02;;;;;;;63.13;29.40;;;;;;;;;;5044326;28;21111;-73
2023/04/10 05:42:27;;;;;;;62.03;29.83;;;;;;;;;;5059734;28;20024;-74
2023/04/10 05:44:52;;;;;;;58.33;28.17;;;;;;;;;;5047234;28;20020;-74
2023/04/10 05:47:18;;;;;;;66.38;30.38;;;;;;;;;;5050049;28;20077;-73
2023/04/10 05:49:43;;;;;;;60.50;29.50;;;;;;;;;;5061586;28;20029;-74
2023/04/10 05:52:08;;;;;;;65.00;29.83;;;;;;;;;;5060368;28;20021;-74
2023/04/10 05:54:34;;;;;;;59.63;28.40;;;;;;;;;;5066518;28;20024;-74
2023/04/10 05:57:00;;;;;;;53.40;27.52;;;;;;;;;;5065383;28;20028;-74
2023/04/10 05:59:25;;;;;;;57.13;28.88;;;;;;;;;;5067430;28;20031;-73
2023/04/10 06:01:51;;;;;;;58.93;28.60;;;;;;;;;;5067010;28;20029;-74
2023/04/10 06:04:16;;;;;;;60.72;29.70;;;;;;;;;;5061165;28;20278;-74
2023/04/10 06:06:41;;;;;;;62.03;29.33;;;;;;;;;;5064714;28;20029;-74
2023/04/10 06:09:07;;;;;;;55.25;27.80;;;;;;;;;;5049166;28;20273;-74
2023/04/10 06:11:32;;;;;;;63.53;30.08;;;;;;;;;;5042851;28;20098;-74
2023/04/10 06:13:57;;;;;;;61.83;29.92;;;;;;;;;;5065137;28;20058;-74
2023/04/10 06:16:23;;;;;;;55.57;28.33;;;;;;;6.35;nan;101072.22;5053718;28;20032;-73
2023/04/10 06:18:51;;;;;;;58.55;28.83;;;;;;;;;;5060200;28;20067;-73
2023/04/10 06:21:16;;;;;;;57.55;29.55;;;;;;;;;;5061848;28;20052;-74
2023/04/10 06:23:41;;;;;;;62.83;30.37;;;;;;;;;;5048893;28;20061;-73
2023/04/10 06:26:06;;;;;;;61.23;29.57;;;;;;;;;;5063496;28;20769;-74
2023/04/10 06:28:32;;;;;;;60.47;30.40;;;;;;;;;;5052473;28;20280;-74
2023/04/10 06:30:57;;;;;;;59.87;28.67;;;;;;;;;;5059141;28;21081;-75
2023/04/10 06:33:22;;;;;;;54.28;27.70;;;;;;;;;;5065341;28;20274;-73
2023/04/10 06:35:48;;;;;;;52.80;27.95;;;;;;;;;;5060153;28;20020;-75
2023/04/10 06:38:13;;;;;;;53.33;28.00;;;;;;;;;;5058906;28;20043;-74
2023/04/10 06:40:39;;;;;;;48.80;26.27;;;;;;;;;;5061335;28;20032;-75
2023/04/10 06:43:04;;;;;;;50.10;25.65;;;;;;;;;;5065851;28;20265;-74
2023/04/10 06:45:30;;;;;;;46.47;25.37;;;;;;;;;;5060956;28;20024;-74
2023/04/10 06:47:55;;;;;;;49.83;25.07;;;;;;;;;;5065224;28;20773;-74
2023/04/10 06:50:21;;;;;;;49.85;25.85;;;;;;;;;;5051245;28;20292;-74
2023/04/10 06:52:46;;;;;;;43.63;23.45;;;;;;;;;;5069289;28;20047;-74
2023/04/10 06:55:11;;;;;;;46.33;23.33;;;;;;;;;;5051573;28;20052;-74
2023/04/10 06:57:37;;;;;;;42.10;23.40;;;;;;;;;;5070329;28;20074;-74
2023/04/10 07:00:02;;;;;;;42.75;23.58;;;;;;;;;;5058103;28;20277;-74
2023/04/10 07:02:28;;;;;;;45.25;22.40;;;;;;;;;;5056533;28;20546;-74
2023/04/10 07:04:53;;;;;;;42.10;22.83;;;;;;;;;;5047029;28;20021;-73
2023/04/10 07:07:18;;;;;;;47.28;24.73;;;;;;;;;;5038627;28;20082;-73
2023/04/10 07:09:44;;;;;;;48.57;24.83;;;;;;;;;;5043076;28;20025;-73
2023/04/10 07:12:09;;;;;;;44.00;23.93;;;;;;;;;;5046241;28;20613;-70
2023/04/10 07:14:35;;;;;;;45.95;23.30;;;;;;;;;;5055532;28;20286;-71
2023/04/10 07:17:00;;;;;;;42.50;23.13;;;;;;;;;;5061864;28;20024;-71
2023/04/10 07:19:25;;;;;;;46.05;24.05;;;;;;;;;;5062669;28;20040;-71
2023/04/10 07:21:51;;;;;;;44.97;24.13;;;;;;;;;;5046186;28;20040;-71
2023/04/10 07:24:17;;;;;;;40.53;22.92;;;;;;;;;;5035974;28;20119;-71
2023/04/10 07:26:45;;;;;;;47.90;23.38;;;;;;;;;;5064824;28;20134;-71
2023/04/10 07:29:10;;;;;;;37.00;21.55;;;;;;;;;;5060704;28;20028;-70
2023/04/10 07:31:36;;;;;;;45.33;22.63;;;;;;;;;;5059015;28;20054;-70
2023/04/10 07:34:01;;;;;;;32.87;19.60;;;;;;;;;;5062998;28;20119;-70
2023/04/10 07:36:27;;;;;;;38.00;20.60;;;;;;;;;;5059947;28;20266;-70
2023/04/10 07:38:52;;;;;;;36.60;19.75;;;;;;;;;;5062358;28;20036;-70
2023/04/10 07:41:18;;;;;;;34.85;20.02;;;;;;;;;;5049398;28;20482;-70
2023/04/10 07:43:43;;;;;;;32.17;17.92;;;;;;;;;;5051584;28;20565;-70
2023/04/10 07:46:08;;;;;;;29.33;18.00;;;;;;;;;;5063632;28;20047;-71
2023/04/10 07:48:34;;;;;;;32.15;18.88;;;;;;;;;;5065031;28;21683;-70
2023/04/10 07:50:59;;;;;;;34.08;18.30;;;;;;;;;;5065809;28;20446;-69
2023/04/10 07:53:24;;;;;;;32.47;18.10;;;;;;;;;;5063837;28;20472;-70
2023/04/10 07:55:50;;;;;;;25.93;16.90;;;;;;;;;;5049025;28;20510;-69
2023/04/10 07:58:15;;;;;;;31.20;16.95;;;;;;;;;;5057805;28;20312;-70
2023/04/10 08:00:40;;;;;;;27.92;16.15;;;;;;;10.22;nan;101039.31;5047381;28;20040;-69
2023/04/10 08:03:06;;;;;;;25.60;15.82;;;;;;;;;;5064006;28;20024;-70
2023/04/10 08:05:31;;;;;;;27.67;16.65;;;;;;;;;;5063354;28;20031;-70
2023/04/10 08:07:57;;;;;;;24.70;14.90;;;;;;;;;;5064572;28;20537;-70
2023/04/10 08:10:22;;;;;;;25.23;14.47;;;;;;;;;;5067201;28;20032;-70
2023/04/10 08:12:47;;;;;;;25.80;14.73;;;;;;;;;;5051989;28;20186;-70
2023/04/10 08:15:12;;;;;;;26.92;16.10;;;;;;;;;;5068781;28;20812;-70
2023/04/10 08:17:38;;;;;;;22.40;13.73;;;;;;;;;;5068418;28;20405;-69
2023/04/10 08:20:03;;;;;;;23.87;14.77;;;;;;;;;;5063589;28;20025;-69
2023/04/10 08:22:29;;;;;;;23.50;14.43;;;;;;;;;;5063956;28;20277;-69
2023/04/10 08:24:54;;;;;;;22.20;12.90;;;;;;;;;;5058936;28;20024;-70
2023/04/10 08:27:19;;;;;;;19.47;12.20;;;;;;;;;;5061842;28;20041;-70
2023/04/10 08:29:45;;;;;;;18.90;12.15;;;;;;;;;;5065011;28;20288;-71
2023/04/10 08:32:10;;;;;;;20.93;11.90;;;;;;;;;;5063421;28;20497;-69
2023/04/10 08:34:35;;;;;;;22.90;12.50;;;;;;;;;;5057391;28;20277;-70
2023/04/10 08:37:04;;;;;;;18.70;10.98;;;;;;;;;;5057306;28;20287;-74
2023/04/10 08:39:29;;;;;;;17.83;10.73;;;;;;;;;;5071119;28;20743;-74
2023/04/10 08:41:54;;;;;;;15.50;9.20;;;;;;;;;;5068845;28;20032;-74
2023/04/10 08:44:20;;;;;;;17.40;10.13;;;;;;;;;;5068430;28;20602;-74
2023/04/10 08:46:45;;;;;;;19.43;11.10;;;;;;;;;;5071778;28;20029;-75
2023/04/10 08:49:16;;;;;;;16.77;9.85;;;;;;;;;;5050911;28;20691;-75
2023/04/10 08:51:45;;;;;;;17.98;9.88;;;;;;;;;;5050405;28;20036;-74
2023/04/10 08:54:17;;;;;;;15.55;9.82;;;;;;;;;;5061694;28;20021;-74
2023/04/10 08:56:45;;;;;;;17.13;10.15;;;;;;;;;;5065356;28;20127;-75
2023/04/10 08:59:11;;;;;;;14.93;8.90;;;;;;;;;;5051865;28;20030;-74
2023/04/10 09:01:38;;;;;;;14.60;9.70;;;;;;;;;;5063666;28;20024;-74
2023/04/10 09:04:03;;;;;;;13.88;8.52;;;;;;;;;;5068500;28;20182;-74
2023/04/10 09:06:28;;;;;;;17.67;8.68;;;;;;;;;;5068856;28;20532;-75
2023/04/10 09:08:54;;;;;;;16.00;9.30;;;;;;;;;;5053735;28;20052;-74
2023/04/10 09:11:19;;;;;;;14.05;8.32;;;;;;;;;;5069086;28;20075;-75
2023/04/10 09:13:45;;;;;;;12.60;7.77;;;;;;;;;;5057433;28;20029;-75
2023/04/10 09:16:12;;;;;;;12.15;8.32;;;;;;;;;;5046469;28;20269;-74
2023/04/10 09:18:44;;;;;;;14.55;8.50;;;;;;;;;;5062225;28;20029;-75
2023/04/10 09:21:10;;;;;;;13.65;7.45;;;;;;;;;;5053229;28;20036;-74
2023/04/10 09:23:36;;;;;;;14.25;7.60;;;;;;;;;;5058249;28;20023;-73
2023/04/10 09:26:05;;;;;;;10.40;7.67;;;;;;;;;;5074554;28;20024;-74
2023/04/10 09:28:31;;;;;;;10.15;7.70;;;;;;;;;;5052428;28;20928;-74
2023/04/10 09:30:56;;;;;;;10.65;7.60;;;;;;;;;;5062751;28;20048;-75
2023/04/10 09:33:22;;;;;;;11.23;7.73;;;;;;;;;;5064559;28;20028;-74
2023/04/10 09:35:48;;;;;;;12.88;8.00;;;;;;;;;;5071171;28;20092;-74
2023/04/10 09:38:17;;;;;;;12.02;7.68;;;;;;;;;;5069064;28;20538;-76
2023/04/10 09:40:42;;;;;;;;;;;;;;;;;;5046551;28;20039;-73
2023/04/10 09:43:24;;;;;;;10.97;6.70;;;;;;;;;;5064136;28;19920;-72
2023/04/10 09:45:53;;;;;;;11.55;7.60;;;;;;;;;;5063243;28;20039;-72
2023/04/10 09:48:20;;;;;;;10.70;6.68;;;;;;;13.43;nan;100963.19;5062344;28;20024;-73
2023/04/10 09:50:46;;;;;;;12.20;7.32;;;;;;;13.35;nan;100957.22;5066188;28;20067;-72
2023/04/10 09:53:14;;;;;;;10.18;7.05;;;;;;;13.47;nan;100969.63;5062606;28;20043;-73
2023/04/10 09:55:40;;;;;;;11.38;7.03;;;;;;;13.47;nan;100967.78;5047496;28;20060;-73
2023/04/10 09:58:07;;;;;;;9.63;6.90;;;;;;;13.48;nan;100955.38;5056007;28;20779;-77
2023/04/10 10:00:38;;;;;;;12.40;6.40;;;;;;;;;;5053753;28;20335;-76
2023/04/10 10:03:16;;;;;;;9.52;6.57;;;;;;;13.49;nan;100957.00;5037820;28;20564;-77
2023/04/10 10:05:46;;;;;;;10.45;6.60;;;;;;;13.56;nan;100968.25;5072955;28;20036;-77
2023/04/10 10:08:13;;;;;;;9.65;6.85;;;;;;;13.55;nan;100958.69;5062629;28;20373;-77
2023/04/10 10:10:45;;;;;;;8.80;6.47;;;;;;;13.69;nan;100968.00;5042243;28;20025;-77
2023/04/10 10:13:16;;;;;;;12.35;6.63;;;;;;;13.77;nan;100958.94;5055058;28;20025;-77
2023/04/10 10:15:42;;;;;;;12.20;6.93;;;;;;;;;;5059679;28;20518;-77
2023/04/10 10:18:26;;;;;;;11.97;7.07;;;;;;;;;;5058221;28;20209;-77
2023/04/10 10:20:52;;;;;;;9.75;6.18;;;;;;;;;;5043732;28;20688;-77
2023/04/10 10:23:18;;;;;;;9.07;6.25;;;;;;;;;;5065286;28;20043;-78
2023/04/10 10:25:44;;;;;;;10.07;7.13;;;;;;;;;;5064372;28;20032;-77
2023/04/10 10:28:11;;;;;;;8.90;6.53;;;;;;;;;;5064295;28;20074;-78
2023/04/10 10:30:36;;;;;;;10.15;6.90;;;;;;;;;;5046505;28;20119;-76
2023/04/10 10:33:05;;;;;;;9.23;6.30;;;;;;;;;;5064498;28;20099;-77
2023/04/10 10:35:31;;;;;;;10.73;6.32;;;;;;;;;;5046792;28;20727;-77
2023/04/10 10:37:59;;;;;;;8.82;6.13;;;;;;;;;;5060038;28;20036;-77
2023/04/10 10:40:31;;;;;;;9.88;6.43;;;;;;;;;;5060383;28;20021;-77
2023/04/10 10:43:15;;;;;;;8.52;6.07;;;;;;;;;;5064109;28;20028;-76
2023/04/10 10:45:59;;;;;;;8.63;6.45;;;;;;;;;;5066195;28;20467;-78
2023/04/10 10:48:24;;;;;;;8.90;6.03;;;;;;;;;;5061418;28;20112;-78
2023/04/10 10:50:55;;;;;;;10.27;7.20;;;;;;;;;;5052033;28;20161;-77
2023/04/10 10:53:33;;;;;;;12.82;6.40;;;;;;;;;;5067634;28;20273;-78
2023/04/10 10:55:58;;;;;;;9.32;6.25;;;;;;;;;;5052482;28;20079;-77
2023/04/10 10:58:42;;;;;;;10.93;7.10;;;;;;;;;;5050858;28;20542;-77
2023/04/10 11:01:07;;;;;;;10.68;6.00;;;;;;;;;;5057346;28;20017;-78
2023/04/10 11:03:33;;;;;;;9.37;6.37;;;;;;;;;;5056857;28;20039;-77
2023/04/10 11:06:01;;;;;;;10.03;6.10;;;;;;;;;;5038802;28;20693;-76
2023/04/10 11:08:32;;;;;;;9.63;5.80;;;;;;;;;;5061578;28;20276;-76
2023/04/10 11:11:04;;;;;;;10.40;5.97;;;;;;;;;;5062706;28;20031;-77
2023/04/10 11:13:40;;;;;;;9.18;5.72;;;;;;;;;;5064351;28;20028;-78
2023/04/10 11:16:06;;;;;;;8.98;5.90;;;;;;;;;;5062692;28;20266;-77
2023/04/10 11:18:44;;;;;;;8.02;5.63;;;;;;;;;;5068289;28;20060;-77
2023/04/10 11:21:10;;;;;;;8.20;5.18;;;;;;;;;;5059790;28;20054;-76
2023/04/10 11:23:36;;;;;;;9.52;5.78;;;;;;;;;;5045125;28;20039;-76
2023/04/10 11:26:01;;;;;;;10.88;5.95;;;;;;;;;;5059581;28;20577;-77
2023/04/10 11:28:33;;;;;;;8.48;5.47;;;;;;;;;;5062292;28;20056;-77
2023/04/10 11:31:18;;;;;;;8.57;6.05;;;;;;;;;;5045178;28;20029;-76
2023/04/10 11:33:47;;;;;;;10.95;6.95;;;;;;;;;;5058883;28;20101;-77
2023/04/10 11:36:13;;;;;;;10.27;6.18;;;;;;;;;;5057879;28;20033;-76
2023/04/10 11:38:38;;;;;;;13.18;6.47;;;;;;;;;;5042188;28;20486;-76
2023/04/10 11:41:05;;;;;;;8.30;6.20;;;;;;;;;;5046074;28;20039;-76
2023/04/10 11:43:32;;;;;;;8.30;5.70;;;;;;;;;;5062536;28;20282;-76
2023/04/10 11:45:58;;;;;;;8.90;5.95;;;;;;;;;;5059048;28;20020;-76
2023/04/10 11:48:24;;;;;;;9.77;5.75;;;;;;;;;;5063122;28;20099;-77
2023/04/10 11:50:49;;;;;;;9.70;6.30;;;;;;;;;;5067863;28;20469;-73
2023/04/10 11:53:18;;;;;;;10.30;6.75;;;;;;;;;;5064024;28;20050;-73
2023/04/10 11:55:45;;;;;;;11.00;6.78;;;;;;;;;;5060861;28;20053;-73
2023/04/10 11:58:27;;;;;;;9.48;6.68;;;;;;;;;;5045694;28;20047;-73
2023/04/10 12:01:02;;;;;;;7.78;5.75;;;;;;;;;;5063714;28;20032;-73
2023/04/10 12:03:35;;;;;;;8.75;6.47;;;;;;;;;;5061845;28;20027;-73
2023/04/10 12:06:00;;;;;;;8.70;6.50;;;;;;;;;;5065427;28;20029;-73
2023/04/10 12:08:29;;;;;;;8.95;6.15;;;;;;;;;;5046306;28;20040;-73
2023/04/10 12:10:55;;;;;;;8.70;6.60;;;;;;;;;;5044750;28;20873;-73
2023/04/10 12:13:27;;;;;;;10.23;6.63;;;;;;;;;;5052742;28;20142;-72
2023/04/10 12:15:53;;;;;;;9.23;6.47;;;;;;;15.10;nan;100839.41;5067428;28;20533;-72
2023/04/10 12:18:19;;;;;;;11.05;6.60;;;;;;;;;;5066553;28;20041;-73
2023/04/10 12:20:44;;;;;;;11.18;7.03;;;;;;;;;;5051865;28;20161;-73
2023/04/10 12:23:10;;;;;;;13.77;7.13;;;;;;;;;;5050599;28;20032;-72
2023/04/10 12:25:35;;;;;;;9.85;6.88;;;;;;;;;;5052305;28;20028;-73
2023/04/10 12:28:00;;;;;;;10.25;6.45;;;;;;;;;;5053148;28;20044;-73
2023/04/10 12:30:26;;;;;;;9.75;6.47;;;;;;;;;;5078179;28;20036;-73
2023/04/10 12:32:54;;;;;;;10.00;6.50;;;;;;;;;;5068018;28;20032;-74
2023/04/10 12:35:19;;;;;;;9.13;6.05;;;;;;;;;;5055266;28;20262;-73
2023/04/10 12:37:51;;;;;;;13.40;6.75;;;;;;;;;;5072181;28;20036;-73
2023/04/10 12:40:17;;;;;;;11.63;7.30;;;;;;;;;;5067732;28;20109;-73
2023/04/10 12:42:42;;;;;;;9.57;5.72;;;;;;;;;;5070411;28;20028;-73
2023/04/10 12:45:08;;;;;;;9.65;6.88;;;;;;;;;;5053985;28;20107;-73
2023/04/10 12:47:55;;;;;;;8.95;6.65;;;;;;;;;;5064864;28;20021;-73
2023/04/10 12:50:20;;;;;;;10.10;7.05;;;;;;;;;;5046648;28;20128;-73
2023/04/10 12:53:00;;;;;;;11.68;6.88;;;;;;;;;;5059302;28;20142;-73
2023/04/10 12:55:25;;;;;;;10.52;7.10;;;;;;;;;;5058205;28;20049;-73
2023/04/10 12:57:50;;;;;;;13.18;7.18;;;;;;;;;;5064864;28;20112;-73
2023/04/10 13:00:17;;;;;;;10.10;7.10;;;;;;;;;;5066715;28;20389;-72
2023/04/10 13:02:42;;;;;;;9.68;7.28;;;;;;;;;;5057651;28;20285;-72
2023/04/10 13:05:08;;;;;;;12.18;8.02;;;;;;;;;;5061531;28;20071;-72
2023/04/10 13:07:33;;;;;;;11.70;7.95;;;;;;;;;;5067008;28;20024;-73
2023/04/10 13:09:59;;;;;;;11.32;7.90;;;;;;;;;;5072189;28;20120;-72
2023/04/10 13:12:25;;;;;;;14.93;8.60;;;;;;;;;;5065509;28;20104;-71
2023/04/10 13:14:52;;;;;;;13.15;8.70;;;;;;;;;;5064293;28;20082;-70
2023/04/10 13:17:17;;;;;;;12.30;8.38;;;;;;;;;;5043943;28;20087;-72
2023/04/10 13:19:43;;;;;;;12.80;8.67;;;;;;;;;;5055180;28;20056;-72
2023/04/10 13:22:08;;;;;;;11.40;7.60;;;;;;;;;;5056843;28;20149;-72
2023/04/10 13:24:35;;;;;;;11.60;7.87;;;;;;;;;;5049735;28;20039;-71
2023/04/10 13:27:01;;;;;;;11.95;7.55;;;;;;;15.55;nan;100752.69;5053740;28;20279;-71
2023/04/10 13:29:27;;;;;;;9.65;7.30;;;;;;;;;;5046791;28;20028;-71
2023/04/10 13:31:53;;;;;;;12.50;8.70;;;;;;;;;;5064553;28;20021;-70